createdAt,value
2017-08-15T00:02:06.196Z,99.90
2017-08-15T00:04:33.748Z,99.90
2017-08-15T00:07:01.273Z,99.90
2017-08-15T00:09:28.804Z,99.90
2017-08-15T00:11:56.359Z,99.90
2017-08-15T00:14:24.653Z,99.90
2017-08-15T00:16:52.205Z,99.90
2017-08-15T00:19:19.764Z,99.90
2017-08-15T00:21:47.333Z,99.90
2017-08-15T00:24:14.888Z,99.90
2017-08-15T00:26:42.447Z,99.90
2017-08-15T00:29:09.977Z,99.90
2017-08-15T00:31:38.294Z,99.90
2017-08-15T00:34:05.821Z,99.90
2017-08-15T00:36:34.125Z,99.90
2017-08-15T00:39:01.682Z,99.90
2017-08-15T00:41:29.219Z,99.90
2017-08-15T00:43:57.516Z,99.90
2017-08-15T00:46:25.093Z,99.90
2017-08-15T00:48:52.760Z,99.90
2017-08-15T00:51:20.341Z,99.90
2017-08-15T00:53:47.983Z,99.90
2017-08-15T00:56:15.536Z,99.90
2017-08-15T00:58:43.071Z,99.90
2017-08-15T01:01:11.372Z,99.90
2017-08-15T01:03:38.940Z,99.90
2017-08-15T01:06:06.490Z,99.90
2017-08-15T01:08:34.018Z,99.90
2017-08-15T01:11:01.578Z,99.90
2017-08-15T01:13:29.890Z,99.90
2017-08-15T01:15:57.421Z,99.90
2017-08-15T01:18:24.973Z,99.90
2017-08-15T01:20:53.287Z,99.90
2017-08-15T01:23:20.821Z,99.90
2017-08-15T01:25:48.378Z,99.90
2017-08-15T01:28:15.917Z,99.90
2017-08-15T01:30:44.232Z,99.90
2017-08-15T01:33:11.800Z,99.90
2017-08-15T01:35:39.347Z,99.90
2017-08-15T01:38:06.876Z,99.90
2017-08-15T01:40:35.195Z,99.90
2017-08-15T01:43:02.741Z,99.90
2017-08-15T01:45:30.274Z,99.90
2017-08-15T01:47:58.600Z,99.90
2017-08-15T01:50:26.134Z,99.90
2017-08-15T01:52:53.666Z,99.90
2017-08-15T01:55:21.230Z,99.90
2017-08-15T01:57:49.530Z,99.90
2017-08-15T02:00:17.063Z,99.90
2017-08-15T02:02:44.617Z,99.90
2017-08-15T02:05:12.136Z,99.90
2017-08-15T02:07:39.691Z,99.90
2017-08-15T02:10:07.220Z,99.90
2017-08-15T02:12:35.532Z,99.90
2017-08-15T02:15:03.132Z,99.90
2017-08-15T02:17:30.754Z,99.90
2017-08-15T02:19:58.304Z,99.90
2017-08-15T02:22:25.838Z,99.90
2017-08-15T02:24:54.139Z,99.90
2017-08-15T02:27:21.689Z,99.90
2017-08-15T02:29:49.214Z,99.90
2017-08-15T02:32:17.526Z,99.90
2017-08-15T02:34:45.054Z,99.90
2017-08-15T02:37:13.344Z,99.90
2017-08-15T02:39:41.653Z,99.90
2017-08-15T02:42:09.742Z,99.90
2017-08-15T02:44:37.290Z,99.90
2017-08-15T02:47:04.828Z,99.90
2017-08-15T02:49:32.365Z,99.90
2017-08-15T02:52:00.676Z,99.90
2017-08-15T02:54:28.214Z,99.90
2017-08-15T02:56:55.768Z,99.90
2017-08-15T02:59:24.056Z,99.90
2017-08-15T03:01:51.578Z,99.90
2017-08-15T03:04:19.134Z,99.90
2017-08-15T03:06:46.669Z,99.90
2017-08-15T03:09:14.214Z,99.90
2017-08-15T03:11:41.739Z,99.90
2017-08-15T03:14:10.036Z,99.90
2017-08-15T03:16:37.564Z,99.90
2017-08-15T03:19:05.096Z,99.90
2017-08-15T03:21:32.644Z,99.90
2017-08-15T03:24:00.173Z,99.90
2017-08-15T03:26:27.729Z,99.90
2017-08-15T03:28:55.268Z,99.90
2017-08-15T03:31:23.592Z,99.90
2017-08-15T03:33:51.149Z,99.90
2017-08-15T03:36:18.695Z,99.90
2017-08-15T03:38:46.249Z,99.90
2017-08-15T03:41:13.781Z,99.90
2017-08-15T03:43:42.094Z,99.90
2017-08-15T03:46:09.637Z,99.90
2017-08-15T03:48:37.928Z,99.90
2017-08-15T03:51:05.475Z,99.90
2017-08-15T03:53:33.013Z,99.90
2017-08-15T03:56:01.335Z,99.90
2017-08-15T03:58:28.887Z,99.90
2017-08-15T04:00:56.408Z,99.90
2017-08-15T04:03:23.946Z,99.90
2017-08-15T04:05:51.497Z,99.90
2017-08-15T04:08:19.025Z,99.90
2017-08-15T04:10:46.585Z,99.90
2017-08-15T04:13:14.117Z,99.90
2017-08-15T04:15:42.418Z,99.90
2017-08-15T04:18:09.961Z,99.90
2017-08-15T04:20:37.497Z,99.90
2017-08-15T04:23:05.040Z,99.90
2017-08-15T04:25:32.573Z,99.90
2017-08-15T04:28:00.119Z,99.90
2017-08-15T04:30:27.679Z,99.90
2017-08-15T04:32:55.213Z,99.90
2017-08-15T04:35:23.537Z,99.90
2017-08-15T04:37:51.077Z,99.90
2017-08-15T04:40:18.607Z,99.90
2017-08-15T04:42:46.168Z,99.90
2017-08-15T04:45:14.457Z,99.90
2017-08-15T04:47:42.016Z,99.90
2017-08-15T04:50:09.557Z,99.90
2017-08-15T04:52:37.858Z,99.90
2017-08-15T04:55:05.413Z,99.90
2017-08-15T04:57:32.948Z,99.90
2017-08-15T05:00:01.241Z,99.90
2017-08-15T05:02:29.554Z,99.90
2017-08-15T05:04:57.089Z,99.90
2017-08-15T05:07:24.620Z,99.90
2017-08-15T05:09:52.928Z,99.90
2017-08-15T05:12:20.465Z,99.90
2017-08-15T05:14:48.892Z,99.90
2017-08-15T05:17:16.432Z,99.90
2017-08-15T05:19:44.002Z,99.90
2017-08-15T05:22:11.544Z,99.90
2017-08-15T05:24:39.084Z,99.90
2017-08-15T05:27:07.400Z,99.90
2017-08-15T05:29:34.944Z,99.90
2017-08-15T05:32:02.469Z,99.90
2017-08-15T05:34:30.770Z,99.90
2017-08-15T05:36:58.316Z,99.90
2017-08-15T05:39:26.618Z,99.90
2017-08-15T05:41:54.162Z,99.90
2017-08-15T05:44:21.692Z,99.90
2017-08-15T05:46:49.269Z,99.90
2017-08-15T05:49:17.585Z,99.90
2017-08-15T05:51:45.113Z,99.90
2017-08-15T05:54:13.434Z,99.90
2017-08-15T05:56:40.989Z,99.90
2017-08-15T05:59:08.528Z,99.90
2017-08-15T06:01:36.061Z,99.90
2017-08-15T06:04:04.402Z,99.90
2017-08-15T06:06:31.924Z,99.90
2017-08-15T06:08:59.461Z,99.90
2017-08-15T06:11:27.774Z,99.90
2017-08-15T06:13:55.325Z,99.90
2017-08-15T06:16:22.898Z,99.90
2017-08-15T06:18:50.424Z,99.90
2017-08-15T06:21:18.725Z,99.90
2017-08-15T06:23:46.299Z,99.90
2017-08-15T06:26:13.860Z,99.90
2017-08-15T06:28:41.394Z,99.90
2017-08-15T06:31:08.951Z,99.90
2017-08-15T06:33:36.477Z,99.90
2017-08-15T06:36:04.009Z,99.90
2017-08-15T06:38:31.555Z,99.90
2017-08-15T06:40:59.108Z,99.90
2017-08-15T06:43:26.629Z,97.80
2017-08-15T06:45:54.914Z,93.20
2017-08-15T06:48:23.334Z,91.00
2017-08-15T06:50:50.890Z,90.90
2017-08-15T06:53:18.415Z,87.80
2017-08-15T06:55:46.713Z,82.40
2017-08-15T06:58:14.277Z,82.30
2017-08-15T07:00:41.802Z,79.80
2017-08-15T07:03:10.113Z,77.60
2017-08-15T07:05:37.641Z,77.70
2017-08-15T07:08:05.948Z,71.00
2017-08-15T07:10:33.522Z,70.80
2017-08-15T07:13:01.056Z,71.40
2017-08-15T07:15:28.580Z,70.30
2017-08-15T07:17:56.128Z,69.50
2017-08-15T07:20:23.649Z,70.20
2017-08-15T07:22:51.186Z,71.40
2017-08-15T07:25:19.509Z,65.90
2017-08-15T07:27:47.037Z,65.80
2017-08-15T07:30:14.599Z,68.00
2017-08-15T07:32:42.146Z,67.90
2017-08-15T07:35:09.685Z,66.80
2017-08-15T07:37:37.997Z,65.20
2017-08-15T07:40:05.549Z,65.80
2017-08-15T07:42:33.077Z,65.80
2017-08-15T07:45:00.624Z,65.80
2017-08-15T07:47:28.166Z,67.70
2017-08-15T07:49:55.689Z,65.00
2017-08-15T07:52:23.245Z,63.60
2017-08-15T07:54:50.778Z,62.60
2017-08-15T07:57:18.327Z,60.20
2017-08-15T07:59:45.869Z,59.00
2017-08-15T08:02:13.389Z,58.00
2017-08-15T08:04:40.971Z,58.00
2017-08-15T08:07:08.498Z,58.10
2017-08-15T08:09:36.032Z,58.20
2017-08-15T08:12:04.354Z,56.00
2017-08-15T08:14:31.884Z,55.30
2017-08-15T08:17:00.186Z,57.50
2017-08-15T08:19:27.733Z,57.50
2017-08-15T08:21:55.264Z,55.30
2017-08-15T08:24:22.813Z,55.80
2017-08-15T08:26:50.349Z,54.80
2017-08-15T08:29:17.885Z,55.20
2017-08-15T08:31:45.434Z,54.40
2017-08-15T08:34:12.975Z,51.90
2017-08-15T08:36:41.281Z,50.20
2017-08-15T08:39:08.837Z,50.10
2017-08-15T08:41:36.365Z,50.70
2017-08-15T08:44:04.705Z,52.00
2017-08-15T08:46:32.252Z,51.30
2017-08-15T08:48:59.793Z,51.30
2017-08-15T08:51:27.340Z,50.90
2017-08-15T08:53:54.880Z,49.60
2017-08-15T08:56:23.170Z,49.70
2017-08-15T08:58:50.743Z,49.70
2017-08-15T09:01:18.269Z,50.70
2017-08-15T09:03:46.581Z,51.10
2017-08-15T09:06:14.117Z,51.30
2017-08-15T09:08:42.421Z,48.90
2017-08-15T09:11:09.975Z,48.80
2017-08-15T09:13:37.502Z,49.40
2017-08-15T09:16:05.060Z,51.10
2017-08-15T09:18:32.589Z,48.40
2017-08-15T09:21:00.129Z,47.50
2017-08-15T09:23:27.689Z,48.20
2017-08-15T09:25:55.221Z,48.80
2017-08-15T09:28:23.556Z,47.00
2017-08-15T09:30:51.113Z,47.00
2017-08-15T09:33:18.641Z,45.10
2017-08-15T09:35:46.172Z,45.90
2017-08-15T09:38:14.504Z,45.30
2017-08-15T09:40:42.033Z,45.30
2017-08-15T09:43:09.577Z,47.30
2017-08-15T09:45:37.875Z,43.70
2017-08-15T09:48:05.413Z,43.70
2017-08-15T09:50:32.961Z,44.70
2017-08-15T09:53:01.254Z,44.60
2017-08-15T09:55:28.804Z,44.50
2017-08-15T09:57:56.377Z,45.40
2017-08-15T10:00:23.944Z,45.70
2017-08-15T10:02:51.498Z,47.30
2017-08-15T10:05:19.049Z,47.20
2017-08-15T10:07:46.597Z,47.40
2017-08-15T10:10:14.941Z,45.20
2017-08-15T10:12:42.491Z,45.10
2017-08-15T10:15:10.017Z,44.90
2017-08-15T10:17:37.570Z,43.80
2017-08-15T10:20:05.105Z,41.90
2017-08-15T10:22:32.641Z,39.60
2017-08-15T10:25:00.201Z,39.70
2017-08-15T10:27:27.738Z,41.10
2017-08-15T10:29:55.277Z,41.50
2017-08-15T10:32:22.850Z,41.10
2017-08-15T10:34:50.393Z,40.30
2017-08-15T10:37:17.916Z,39.90
2017-08-15T10:39:45.453Z,40.40
2017-08-15T10:42:13.010Z,37.10
2017-08-15T10:44:40.536Z,38.80
2017-08-15T10:47:08.085Z,37.30
2017-08-15T10:49:35.648Z,36.90
2017-08-15T10:52:03.181Z,39.30
2017-08-15T10:54:31.502Z,38.70
2017-08-15T10:56:59.041Z,38.90
2017-08-15T10:59:26.569Z,37.60
2017-08-15T11:01:54.134Z,38.60
2017-08-15T11:04:21.670Z,37.60
2017-08-15T11:06:49.966Z,42.50
2017-08-15T11:09:17.532Z,42.40
2017-08-15T11:11:45.067Z,39.90
2017-08-15T11:14:13.379Z,41.00
2017-08-15T11:16:40.908Z,41.00
2017-08-15T11:19:08.445Z,41.20
2017-08-15T11:21:36.013Z,42.90
2017-08-15T11:24:04.345Z,42.00
2017-08-15T11:26:31.877Z,42.10
2017-08-15T11:28:59.461Z,42.60
2017-08-15T11:31:27.000Z,41.60
2017-08-15T11:33:54.559Z,41.10
2017-08-15T11:36:22.092Z,42.50
2017-08-15T11:38:50.421Z,44.50
2017-08-15T11:41:17.954Z,43.90
2017-08-15T11:43:45.499Z,42.20
2017-08-15T11:46:13.826Z,44.30
2017-08-15T11:48:41.352Z,43.60
2017-08-15T11:51:08.900Z,43.60
2017-08-15T11:53:36.473Z,43.30
2017-08-15T11:56:04.016Z,43.70
2017-08-15T11:58:32.328Z,45.10
2017-08-15T12:00:59.853Z,45.10
2017-08-15T12:03:28.182Z,43.60
2017-08-15T12:05:55.712Z,43.60
2017-08-15T12:08:23.245Z,43.40
2017-08-15T12:10:51.557Z,42.80
2017-08-15T12:13:19.088Z,42.80
2017-08-15T12:15:46.621Z,43.30
2017-08-15T12:18:14.193Z,46.10
2017-08-15T12:20:41.749Z,43.00
2017-08-15T12:23:09.310Z,40.90
2017-08-15T12:25:36.837Z,42.30
2017-08-15T12:28:05.148Z,42.60
2017-08-15T12:30:32.676Z,42.50
2017-08-15T12:33:00.221Z,42.60
2017-08-15T12:35:28.529Z,43.70
2017-08-15T12:37:56.053Z,43.40
2017-08-15T12:40:24.397Z,43.00
2017-08-15T12:42:51.915Z,42.80
2017-08-15T12:45:19.469Z,43.70
2017-08-15T12:47:47.781Z,42.40
2017-08-15T12:50:15.314Z,42.30
2017-08-15T12:52:42.868Z,46.00
2017-08-15T12:55:10.389Z,50.90
2017-08-15T12:57:37.926Z,53.10
2017-08-15T13:00:05.512Z,55.20
2017-08-15T13:02:33.070Z,56.50
2017-08-15T13:05:00.594Z,56.40
2017-08-15T13:07:28.145Z,58.00
2017-08-15T13:09:55.701Z,56.60
2017-08-15T13:12:23.237Z,55.60
2017-08-15T13:14:51.551Z,54.90
2017-08-15T13:17:19.086Z,54.80
2017-08-15T13:19:46.657Z,54.90
2017-08-15T13:22:14.232Z,56.40
2017-08-15T13:24:41.784Z,57.00
2017-08-15T13:27:09.337Z,56.80
2017-08-15T13:29:36.866Z,56.90
2017-08-15T13:32:05.161Z,58.40
2017-08-15T13:34:32.732Z,58.40
2017-08-15T13:37:00.265Z,59.30
2017-08-15T13:39:28.569Z,58.90
2017-08-15T13:41:56.097Z,58.90
2017-08-15T13:44:24.420Z,57.90
2017-08-15T13:46:51.968Z,57.90
2017-08-15T13:49:19.518Z,58.80
2017-08-15T13:51:47.086Z,58.60
2017-08-15T13:54:14.691Z,58.80
2017-08-15T13:56:42.232Z,59.20
2017-08-15T13:59:09.815Z,59.50
2017-08-15T14:01:37.333Z,58.90
2017-08-15T14:04:04.897Z,59.80
2017-08-15T14:06:32.441Z,59.00
2017-08-15T14:08:59.973Z,56.70
2017-08-15T14:11:28.299Z,57.00
2017-08-15T14:13:55.853Z,57.00
2017-08-15T14:16:23.398Z,57.80
2017-08-15T14:18:50.951Z,57.50
2017-08-15T14:21:18.493Z,57.90
2017-08-15T14:23:46.812Z,58.70
2017-08-15T14:26:14.369Z,58.60
2017-08-15T14:28:41.936Z,56.70
2017-08-15T14:31:09.519Z,57.30
2017-08-15T14:33:37.049Z,57.60
2017-08-15T14:36:04.603Z,59.70
2017-08-15T14:38:32.154Z,58.90
2017-08-15T14:40:59.678Z,57.30
2017-08-15T14:43:28.003Z,57.20
2017-08-15T14:45:55.547Z,57.10
2017-08-15T14:48:23.085Z,59.20
2017-08-15T14:50:51.407Z,58.00
2017-08-15T14:53:19.067Z,58.00
2017-08-15T14:55:46.623Z,58.90
2017-08-15T14:58:14.194Z,59.20
2017-08-15T15:00:41.744Z,58.90
2017-08-15T15:03:09.320Z,57.40
2017-08-15T15:05:36.867Z,55.90
2017-08-15T15:08:04.427Z,55.90
2017-08-15T15:10:32.001Z,55.90
2017-08-15T15:12:59.554Z,58.40
2017-08-15T15:15:27.118Z,55.60
2017-08-15T15:17:54.648Z,56.80
2017-08-15T15:20:22.197Z,55.00
2017-08-15T15:22:49.737Z,55.50
2017-08-15T15:25:18.064Z,54.50
2017-08-15T15:27:45.629Z,54.50
2017-08-15T15:30:13.154Z,55.40
2017-08-15T15:32:40.686Z,57.00
2017-08-15T15:35:08.213Z,58.00
2017-08-15T15:37:35.756Z,57.30
2017-08-15T15:40:03.273Z,57.70
2017-08-15T15:42:31.570Z,58.20
2017-08-15T15:44:59.153Z,58.20
2017-08-15T15:47:26.673Z,58.80
2017-08-15T15:49:55.025Z,59.30
2017-08-15T15:52:22.542Z,59.30
2017-08-15T15:54:50.085Z,59.90
2017-08-15T15:57:17.622Z,59.50
2017-08-15T15:59:45.924Z,58.90
2017-08-15T16:02:13.485Z,58.90
2017-08-15T16:04:41.009Z,58.70
2017-08-15T16:07:08.546Z,58.70
2017-08-15T16:09:36.118Z,59.40
2017-08-15T16:12:03.670Z,60.10
2017-08-15T16:14:31.212Z,60.50
2017-08-15T16:16:58.745Z,60.50
2017-08-15T16:19:26.438Z,60.80
2017-08-15T16:21:53.961Z,60.40
2017-08-15T16:24:21.489Z,62.80
2017-08-15T16:26:49.059Z,62.60
2017-08-15T16:29:17.361Z,64.20
2017-08-15T16:31:44.914Z,64.10
2017-08-15T16:34:12.465Z,65.80
2017-08-15T16:36:40.777Z,69.10
2017-08-15T16:39:08.345Z,68.90
2017-08-15T16:41:35.885Z,68.60
2017-08-15T16:44:03.451Z,69.00
2017-08-15T16:46:31.022Z,71.40
2017-08-15T16:48:58.569Z,75.00
2017-08-15T16:51:26.105Z,77.50
2017-08-15T16:53:54.416Z,81.40
2017-08-15T16:56:21.965Z,81.40
2017-08-15T16:58:49.502Z,84.80
2017-08-15T17:01:17.793Z,86.00
2017-08-15T17:03:45.338Z,86.10
2017-08-15T17:06:13.650Z,93.60
2017-08-15T17:08:41.197Z,93.70
2017-08-15T17:11:08.762Z,94.30
2017-08-15T17:13:36.290Z,97.20
2017-08-15T17:16:04.710Z,99.90
2017-08-15T17:18:32.256Z,99.90
2017-08-15T17:20:59.790Z,99.90
2017-08-15T17:23:28.119Z,99.90
2017-08-15T17:25:55.651Z,99.90
2017-08-15T17:28:23.173Z,99.90
2017-08-15T17:30:51.489Z,99.90
2017-08-15T17:33:19.092Z,99.90
2017-08-15T17:35:46.630Z,99.90
2017-08-15T17:38:14.261Z,99.90
2017-08-15T17:40:41.817Z,99.90
2017-08-15T17:43:09.354Z,99.90
2017-08-15T17:45:37.654Z,99.90
2017-08-15T17:48:05.222Z,99.90
2017-08-15T17:50:32.764Z,99.90
2017-08-15T17:53:01.058Z,99.90
2017-08-15T17:55:28.612Z,99.90
2017-08-15T17:57:56.165Z,99.90
2017-08-15T18:00:23.716Z,99.90
2017-08-15T18:02:52.013Z,99.90
2017-08-15T18:05:19.594Z,99.90
2017-08-15T18:07:47.126Z,99.90
2017-08-15T18:10:14.677Z,99.90
2017-08-15T18:12:42.969Z,99.90
2017-08-15T18:15:10.528Z,99.90
2017-08-15T18:17:38.057Z,99.90
2017-08-15T18:20:05.591Z,99.90
2017-08-15T18:22:33.140Z,99.90
2017-08-15T18:25:00.731Z,99.90
2017-08-15T18:27:28.300Z,99.90
2017-08-15T18:29:56.586Z,99.90
2017-08-15T18:32:24.928Z,99.90
2017-08-15T18:34:52.503Z,99.90
2017-08-15T18:37:20.079Z,99.90
2017-08-15T18:39:48.509Z,99.90
2017-08-15T18:42:16.051Z,99.90
2017-08-15T18:44:43.604Z,99.90
2017-08-15T18:47:11.172Z,99.90
2017-08-15T18:49:38.693Z,99.90
2017-08-15T18:52:07.025Z,99.90
2017-08-15T18:54:34.584Z,99.90
2017-08-15T18:57:02.135Z,99.90
2017-08-15T18:59:30.233Z,99.90
2017-08-15T19:01:57.759Z,99.90
2017-08-15T19:04:25.309Z,99.90
2017-08-15T19:06:52.932Z,99.90
2017-08-15T19:09:20.506Z,99.90
2017-08-15T19:11:48.029Z,99.90
2017-08-15T19:14:15.590Z,99.90
2017-08-15T19:16:43.130Z,99.90
2017-08-15T19:19:10.662Z,99.90
2017-08-15T19:21:38.227Z,99.90
2017-08-15T19:24:05.776Z,99.90
2017-08-15T19:26:33.308Z,99.90
2017-08-15T19:29:01.617Z,99.90
2017-08-15T19:31:29.158Z,99.90
2017-08-15T19:33:56.696Z,99.90
2017-08-15T19:36:25.043Z,99.90
2017-08-15T19:38:52.597Z,99.90
2017-08-15T19:41:20.160Z,99.90
2017-08-15T19:43:47.697Z,99.90
2017-08-15T19:46:15.254Z,99.90
2017-08-15T19:48:42.812Z,99.90
2017-08-15T19:51:10.361Z,99.90
2017-08-15T19:53:37.909Z,99.90
2017-08-15T19:56:05.446Z,99.90
2017-08-15T19:58:33.753Z,99.90
2017-08-15T20:01:01.367Z,99.90
2017-08-15T20:03:28.914Z,99.90
2017-08-15T20:05:56.476Z,99.90
2017-08-15T20:08:24.043Z,99.90
2017-08-15T20:10:51.610Z,99.90
2017-08-15T20:13:19.147Z,99.90
2017-08-15T20:15:46.677Z,99.90
2017-08-15T20:18:14.254Z,99.90
2017-08-15T20:20:41.828Z,99.90
2017-08-15T20:23:09.403Z,99.90
2017-08-15T20:25:36.933Z,99.90
2017-08-15T20:28:04.511Z,99.90
2017-08-15T20:30:32.086Z,99.90
2017-08-15T20:32:59.711Z,99.90
2017-08-15T20:35:27.276Z,99.90
2017-08-15T20:37:55.855Z,99.90
2017-08-15T20:40:23.430Z,99.90
2017-08-15T20:42:51.247Z,99.90
2017-08-15T20:45:18.787Z,99.90
2017-08-15T20:47:47.127Z,99.90
2017-08-15T20:50:14.697Z,99.90
2017-08-15T20:52:42.270Z,99.90
2017-08-15T20:55:09.861Z,99.90
2017-08-15T20:57:37.392Z,99.90
2017-08-15T21:00:05.011Z,99.90
2017-08-15T21:02:32.598Z,99.90
2017-08-15T21:05:00.183Z,99.90
2017-08-15T21:07:27.721Z,99.90
2017-08-15T21:09:55.259Z,99.90
2017-08-15T21:12:22.806Z,99.90
2017-08-15T21:14:50.350Z,99.90
2017-08-15T21:17:17.888Z,99.90
2017-08-15T21:19:46.208Z,99.90
2017-08-15T21:22:13.762Z,99.90
2017-08-15T21:24:41.328Z,99.90
2017-08-15T21:27:08.859Z,99.90
2017-08-15T21:29:36.429Z,99.90
2017-08-15T21:32:03.993Z,99.90
2017-08-15T21:34:31.540Z,99.90
2017-08-15T21:36:59.132Z,99.90
2017-08-15T21:39:26.797Z,99.90
2017-08-15T21:41:54.332Z,99.90
2017-08-15T21:44:22.056Z,99.90
2017-08-15T21:46:49.590Z,99.90
2017-08-15T21:49:17.202Z,99.90
2017-08-15T21:51:45.517Z,99.90
2017-08-15T21:54:13.066Z,99.90
2017-08-15T21:56:40.593Z,99.90
2017-08-15T21:59:08.899Z,99.90
2017-08-15T22:01:42.822Z,99.90
2017-08-15T22:04:10.374Z,99.90
2017-08-15T22:06:37.963Z,99.90
2017-08-15T22:09:05.532Z,99.90
2017-08-15T22:11:33.083Z,99.90
2017-08-15T22:14:01.492Z,99.90
2017-08-15T22:16:29.028Z,99.90
2017-08-15T22:18:56.594Z,99.90
2017-08-15T22:21:24.153Z,99.90
2017-08-15T22:23:51.708Z,99.90
2017-08-15T22:26:19.244Z,99.90
2017-08-15T22:28:46.796Z,99.90
2017-08-15T22:31:14.324Z,99.90
2017-08-15T22:33:41.845Z,99.90
2017-08-15T22:36:09.409Z,99.90
2017-08-15T22:38:36.942Z,99.90
2017-08-15T22:41:04.473Z,99.90
2017-08-15T22:43:32.797Z,99.90
2017-08-15T22:46:00.377Z,99.90
2017-08-15T22:48:27.935Z,99.90
2017-08-15T22:50:55.473Z,99.90
2017-08-15T22:53:23.021Z,99.90
2017-08-15T22:55:50.557Z,99.90
2017-08-15T22:58:18.113Z,99.90
2017-08-15T23:00:45.660Z,99.90
2017-08-15T23:03:13.191Z,99.90
2017-08-15T23:05:40.745Z,99.90
2017-08-15T23:08:08.280Z,99.90
2017-08-15T23:10:35.840Z,99.90
2017-08-15T23:13:04.154Z,99.90
2017-08-15T23:15:31.676Z,99.90
2017-08-15T23:18:00.020Z,99.90
2017-08-15T23:20:27.549Z,99.90
2017-08-15T23:22:55.116Z,99.90
2017-08-15T23:25:22.653Z,99.90
2017-08-15T23:27:50.205Z,99.90
2017-08-15T23:30:17.757Z,99.90
2017-08-15T23:32:45.295Z,99.90
2017-08-15T23:35:12.842Z,99.90
2017-08-15T23:37:40.422Z,99.90
2017-08-15T23:40:07.978Z,99.90
2017-08-15T23:42:35.560Z,99.90
2017-08-15T23:45:03.130Z,99.90
2017-08-15T23:47:31.440Z,99.90
2017-08-15T23:49:58.971Z,99.90
2017-08-15T23:52:27.296Z,99.90
2017-08-15T23:54:54.836Z,99.90
2017-08-15T23:57:22.386Z,99.90
2017-08-15T23:59:49.940Z,99.90
